Terminal Aerodrome Forecast
Issued by NWS Wilmington, OH

Current Version | Previous Version | Text Only | Print | Product List | Glossary Off
Versions: 1 2 3 4 5 6 7 8 9 10 11 12 13 14 15 16 17 18 19 20 21

000
FTUS41 KILN 262337
TAFILN
TAF
KILN 262337Z 2700/2724 19006KT P6SM OVC080
     FM271200 16006KT P6SM VCSH OVC035
     FM271400 17007KT P6SM -SHRA OVC025
     FM271700 17009KT P6SM VCSH OVC018
     FM271900 19009KT P6SM OVC022
     FM272300 15005KT P6SM OVC040=

USA.gov is the U.S. government's official web portal to all federal, state and local government web resources and services.